Cross Plains, Texas
Current Conditions -  °F | °C
As of 7:15 AM on Thursday 18 Dec 2014 (Local Time) from KCOM Reporting Station
Overcast Overcast  
Wind Chill: 50°   Ceiling: 700
Heat Index: 50°   Visibility: 10mi
Dew Point: 49°   Wind: 0mph
Humidity: 99%   Direction: NA
Pressure: 30.1"   Gusts: NA
Location:  32.13°N, 99.17°W
Report Text: KCOM 181315Z AUTO 00000KT 10SM OVC007 10/10 A3010 RMK AO2 T00980096
Loading
Personal Weather Stations






























Interactive Weather Map New forecast layout! Learn more

10-Day Weather Forecast

Advertisements
Track Severe Weather on mobile